sensor_id;sensor_type;location;lat;lon;timestamp;P1;durP1;ratioP1;P2;durP2;ratioP2
253;SDS011;590;48.772;8.846;2022-07-05T00:01:46;3.27;;;3.07;;
253;SDS011;590;48.772;8.846;2022-07-05T00:04:14;3.00;;;2.80;;
253;SDS011;590;48.772;8.846;2022-07-05T00:06:43;3.47;;;3.27;;
253;SDS011;590;48.772;8.846;2022-07-05T00:09:26;3.90;;;3.70;;
253;SDS011;590;48.772;8.846;2022-07-05T00:11:54;4.17;;;3.47;;
253;SDS011;590;48.772;8.846;2022-07-05T00:14:22;3.50;;;3.30;;
253;SDS011;590;48.772;8.846;2022-07-05T00:16:50;3.47;;;3.27;;
253;SDS011;590;48.772;8.846;2022-07-05T00:19:18;4.57;;;4.27;;
253;SDS011;590;48.772;8.846;2022-07-05T00:21:46;3.40;;;3.20;;
253;SDS011;590;48.772;8.846;2022-07-05T00:24:14;3.70;;;3.50;;
253;SDS011;590;48.772;8.846;2022-07-05T00:26:44;3.90;;;3.70;;
253;SDS011;590;48.772;8.846;2022-07-05T00:29:12;3.67;;;3.47;;
253;SDS011;590;48.772;8.846;2022-07-05T00:31:40;3.50;;;3.30;;
253;SDS011;590;48.772;8.846;2022-07-05T00:34:08;3.77;;;3.57;;
253;SDS011;590;48.772;8.846;2022-07-05T00:36:36;3.33;;;3.13;;
253;SDS011;590;48.772;8.846;2022-07-05T00:39:04;3.53;;;3.33;;
253;SDS011;590;48.772;8.846;2022-07-05T00:41:33;3.17;;;2.97;;
253;SDS011;590;48.772;8.846;2022-07-05T00:44:03;3.20;;;3.00;;
253;SDS011;590;48.772;8.846;2022-07-05T00:46:32;3.20;;;3.00;;
253;SDS011;590;48.772;8.846;2022-07-05T00:49:02;4.73;;;3.30;;
253;SDS011;590;48.772;8.846;2022-07-05T00:51:32;3.13;;;2.93;;
253;SDS011;590;48.772;8.846;2022-07-05T00:54:05;5.40;;;3.53;;
253;SDS011;590;48.772;8.846;2022-07-05T00:56:34;3.30;;;3.10;;
253;SDS011;590;48.772;8.846;2022-07-05T00:59:03;3.20;;;3.00;;
253;SDS011;590;48.772;8.846;2022-07-05T01:01:31;4.30;;;3.40;;
253;SDS011;590;48.772;8.846;2022-07-05T01:03:59;3.03;;;2.83;;
253;SDS011;590;48.772;8.846;2022-07-05T01:06:27;6.40;;;3.77;;
253;SDS011;590;48.772;8.846;2022-07-05T01:08:55;3.97;;;3.77;;
253;SDS011;590;48.772;8.846;2022-07-05T01:11:23;3.90;;;3.70;;
253;SDS011;590;48.772;8.846;2022-07-05T01:13:51;3.60;;;3.40;;
253;SDS011;590;48.772;8.846;2022-07-05T01:16:21;3.50;;;3.30;;
253;SDS011;590;48.772;8.846;2022-07-05T01:18:49;3.10;;;2.90;;
253;SDS011;590;48.772;8.846;2022-07-05T01:21:18;4.33;;;3.70;;
253;SDS011;590;48.772;8.846;2022-07-05T01:23:49;3.03;;;2.83;;
253;SDS011;590;48.772;8.846;2022-07-05T01:26:17;3.70;;;3.50;;
253;SDS011;590;48.772;8.846;2022-07-05T01:28:46;3.67;;;3.47;;
253;SDS011;590;48.772;8.846;2022-07-05T01:31:14;3.27;;;2.97;;
253;SDS011;590;48.772;8.846;2022-07-05T01:33:42;3.50;;;3.30;;
253;SDS011;590;48.772;8.846;2022-07-05T01:36:10;3.10;;;2.90;;
253;SDS011;590;48.772;8.846;2022-07-05T01:38:40;3.30;;;3.10;;
253;SDS011;590;48.772;8.846;2022-07-05T01:41:10;3.63;;;3.43;;
253;SDS011;590;48.772;8.846;2022-07-05T01:43:38;3.13;;;2.93;;
253;SDS011;590;48.772;8.846;2022-07-05T01:46:06;3.70;;;2.93;;
253;SDS011;590;48.772;8.846;2022-07-05T01:48:37;6.20;;;2.80;;
253;SDS011;590;48.772;8.846;2022-07-05T01:51:07;3.47;;;3.27;;
253;SDS011;590;48.772;8.846;2022-07-05T01:53:41;3.40;;;3.20;;
253;SDS011;590;48.772;8.846;2022-07-05T01:56:13;3.67;;;3.47;;
253;SDS011;590;48.772;8.846;2022-07-05T01:58:41;3.50;;;3.30;;
253;SDS011;590;48.772;8.846;2022-07-05T02:01:09;3.37;;;3.13;;
253;SDS011;590;48.772;8.846;2022-07-05T02:03:39;3.53;;;3.27;;
253;SDS011;590;48.772;8.846;2022-07-05T02:06:23;3.93;;;3.73;;
253;SDS011;590;48.772;8.846;2022-07-05T02:08:51;3.50;;;3.23;;
253;SDS011;590;48.772;8.846;2022-07-05T02:11:20;3.20;;;3.00;;
253;SDS011;590;48.772;8.846;2022-07-05T02:13:48;3.00;;;2.80;;
253;SDS011;590;48.772;8.846;2022-07-05T02:16:16;3.10;;;2.90;;
253;SDS011;590;48.772;8.846;2022-07-05T02:18:45;3.40;;;3.13;;
253;SDS011;590;48.772;8.846;2022-07-05T02:21:13;3.00;;;2.77;;
253;SDS011;590;48.772;8.846;2022-07-05T02:23:41;3.80;;;3.60;;
253;SDS011;590;48.772;8.846;2022-07-05T02:26:09;3.27;;;3.07;;
253;SDS011;590;48.772;8.846;2022-07-05T02:28:38;5.10;;;4.80;;
253;SDS011;590;48.772;8.846;2022-07-05T02:31:07;4.37;;;4.10;;
253;SDS011;590;48.772;8.846;2022-07-05T02:33:35;3.77;;;3.57;;
253;SDS011;590;48.772;8.846;2022-07-05T02:36:07;3.40;;;3.20;;
253;SDS011;590;48.772;8.846;2022-07-05T02:38:36;3.60;;;3.40;;
253;SDS011;590;48.772;8.846;2022-07-05T02:41:04;3.70;;;3.50;;
253;SDS011;590;48.772;8.846;2022-07-05T02:43:33;3.17;;;2.97;;
253;SDS011;590;48.772;8.846;2022-07-05T02:46:03;3.70;;;3.50;;
253;SDS011;590;48.772;8.846;2022-07-05T02:48:33;3.70;;;3.03;;
253;SDS011;590;48.772;8.846;2022-07-05T02:51:02;3.10;;;2.93;;
253;SDS011;590;48.772;8.846;2022-07-05T02:53:30;3.50;;;3.30;;
253;SDS011;590;48.772;8.846;2022-07-05T02:56:00;3.13;;;2.93;;
253;SDS011;590;48.772;8.846;2022-07-05T02:58:29;3.37;;;3.17;;
253;SDS011;590;48.772;8.846;2022-07-05T03:00:57;4.00;;;3.10;;
253;SDS011;590;48.772;8.846;2022-07-05T03:03:26;2.83;;;2.70;;
253;SDS011;590;48.772;8.846;2022-07-05T03:05:55;3.50;;;3.30;;
253;SDS011;590;48.772;8.846;2022-07-05T03:08:23;2.37;;;2.10;;
253;SDS011;590;48.772;8.846;2022-07-05T03:10:51;2.97;;;2.77;;
253;SDS011;590;48.772;8.846;2022-07-05T03:13:19;3.27;;;3.10;;
253;SDS011;590;48.772;8.846;2022-07-05T03:15:47;3.33;;;3.13;;
253;SDS011;590;48.772;8.846;2022-07-05T03:18:15;2.93;;;2.73;;
253;SDS011;590;48.772;8.846;2022-07-05T03:20:44;3.23;;;3.03;;
253;SDS011;590;48.772;8.846;2022-07-05T03:23:13;2.97;;;2.77;;
253;SDS011;590;48.772;8.846;2022-07-05T03:25:41;3.20;;;3.00;;
253;SDS011;590;48.772;8.846;2022-07-05T03:28:09;5.50;;;3.00;;
253;SDS011;590;48.772;8.846;2022-07-05T03:30:37;3.20;;;2.87;;
253;SDS011;590;48.772;8.846;2022-07-05T03:33:05;3.87;;;3.53;;
253;SDS011;590;48.772;8.846;2022-07-05T03:35:33;4.33;;;3.30;;
253;SDS011;590;48.772;8.846;2022-07-05T03:38:02;3.10;;;2.90;;
253;SDS011;590;48.772;8.846;2022-07-05T03:40:31;3.77;;;3.57;;
253;SDS011;590;48.772;8.846;2022-07-05T03:42:59;3.30;;;3.10;;
253;SDS011;590;48.772;8.846;2022-07-05T03:45:27;4.30;;;3.30;;
253;SDS011;590;48.772;8.846;2022-07-05T03:47:57;3.40;;;3.20;;
253;SDS011;590;48.772;8.846;2022-07-05T03:50:45;3.53;;;3.33;;
253;SDS011;590;48.772;8.846;2022-07-05T03:53:15;3.40;;;3.17;;
253;SDS011;590;48.772;8.846;2022-07-05T03:55:43;4.10;;;3.90;;
253;SDS011;590;48.772;8.846;2022-07-05T03:58:11;4.03;;;3.83;;
253;SDS011;590;48.772;8.846;2022-07-05T04:00:39;4.87;;;3.50;;
253;SDS011;590;48.772;8.846;2022-07-05T04:03:07;3.90;;;3.70;;
253;SDS011;590;48.772;8.846;2022-07-05T04:05:36;3.93;;;3.73;;
253;SDS011;590;48.772;8.846;2022-07-05T04:08:05;4.53;;;3.50;;
253;SDS011;590;48.772;8.846;2022-07-05T04:10:35;3.87;;;3.67;;
253;SDS011;590;48.772;8.846;2022-07-05T04:13:03;3.20;;;3.00;;
253;SDS011;590;48.772;8.846;2022-07-05T04:15:31;3.23;;;3.03;;
253;SDS011;590;48.772;8.846;2022-07-05T04:17:59;4.23;;;3.57;;
253;SDS011;590;48.772;8.846;2022-07-05T04:20:28;3.23;;;3.03;;
253;SDS011;590;48.772;8.846;2022-07-05T04:22:57;3.43;;;3.23;;
253;SDS011;590;48.772;8.846;2022-07-05T04:25:25;3.17;;;2.97;;
253;SDS011;590;48.772;8.846;2022-07-05T04:27:55;2.90;;;2.70;;
253;SDS011;590;48.772;8.846;2022-07-05T04:30:24;4.00;;;2.37;;
253;SDS011;590;48.772;8.846;2022-07-05T04:32:53;2.60;;;2.33;;
253;SDS011;590;48.772;8.846;2022-07-05T04:35:21;2.60;;;2.40;;
253;SDS011;590;48.772;8.846;2022-07-05T04:37:49;3.20;;;2.20;;
253;SDS011;590;48.772;8.846;2022-07-05T04:40:17;2.63;;;2.37;;
253;SDS011;590;48.772;8.846;2022-07-05T04:42:45;3.00;;;2.70;;
253;SDS011;590;48.772;8.846;2022-07-05T04:45:15;3.07;;;2.80;;
253;SDS011;590;48.772;8.846;2022-07-05T04:47:43;2.80;;;2.47;;
253;SDS011;590;48.772;8.846;2022-07-05T04:50:11;2.87;;;2.67;;
253;SDS011;590;48.772;8.846;2022-07-05T04:52:39;2.60;;;2.40;;
253;SDS011;590;48.772;8.846;2022-07-05T04:55:07;2.80;;;2.60;;
253;SDS011;590;48.772;8.846;2022-07-05T04:57:36;2.20;;;2.00;;
253;SDS011;590;48.772;8.846;2022-07-05T05:00:05;3.30;;;2.40;;
253;SDS011;590;48.772;8.846;2022-07-05T05:02:37;4.73;;;2.30;;
253;SDS011;590;48.772;8.846;2022-07-05T05:05:05;2.40;;;2.20;;
253;SDS011;590;48.772;8.846;2022-07-05T05:07:34;2.33;;;2.13;;
253;SDS011;590;48.772;8.846;2022-07-05T05:10:04;2.33;;;2.13;;
253;SDS011;590;48.772;8.846;2022-07-05T05:12:33;2.40;;;2.20;;
253;SDS011;590;48.772;8.846;2022-07-05T05:15:01;2.37;;;2.20;;
253;SDS011;590;48.772;8.846;2022-07-05T05:17:37;2.40;;;2.20;;
253;SDS011;590;48.772;8.846;2022-07-05T05:20:09;2.50;;;2.23;;
253;SDS011;590;48.772;8.846;2022-07-05T05:22:39;2.90;;;2.70;;
253;SDS011;590;48.772;8.846;2022-07-05T05:25:08;3.33;;;2.40;;
253;SDS011;590;48.772;8.846;2022-07-05T05:27:40;6.50;;;2.67;;
253;SDS011;590;48.772;8.846;2022-07-05T05:30:14;2.53;;;2.33;;
253;SDS011;590;48.772;8.846;2022-07-05T05:32:44;3.30;;;3.10;;
253;SDS011;590;48.772;8.846;2022-07-05T05:35:13;3.20;;;3.00;;
253;SDS011;590;48.772;8.846;2022-07-05T05:37:46;3.07;;;2.87;;
253;SDS011;590;48.772;8.846;2022-07-05T05:40:15;4.03;;;3.43;;
253;SDS011;590;48.772;8.846;2022-07-05T05:42:44;3.13;;;2.80;;
253;SDS011;590;48.772;8.846;2022-07-05T05:45:12;3.40;;;3.20;;
253;SDS011;590;48.772;8.846;2022-07-05T05:47:46;3.20;;;3.00;;
253;SDS011;590;48.772;8.846;2022-07-05T05:50:18;3.43;;;3.23;;
253;SDS011;590;48.772;8.846;2022-07-05T05:52:47;3.60;;;3.00;;
253;SDS011;590;48.772;8.846;2022-07-05T05:55:16;3.23;;;3.00;;
253;SDS011;590;48.772;8.846;2022-07-05T05:57:44;3.10;;;2.90;;
253;SDS011;590;48.772;8.846;2022-07-05T06:00:13;3.23;;;3.10;;
253;SDS011;590;48.772;8.846;2022-07-05T06:02:42;4.33;;;2.53;;
253;SDS011;590;48.772;8.846;2022-07-05T06:05:13;4.87;;;3.10;;
253;SDS011;590;48.772;8.846;2022-07-05T06:07:44;2.67;;;2.47;;
253;SDS011;590;48.772;8.846;2022-07-05T06:10:17;3.23;;;2.80;;
253;SDS011;590;48.772;8.846;2022-07-05T06:12:47;2.67;;;2.47;;
253;SDS011;590;48.772;8.846;2022-07-05T06:15:16;2.77;;;2.50;;
253;SDS011;590;48.772;8.846;2022-07-05T06:17:45;3.63;;;2.53;;
253;SDS011;590;48.772;8.846;2022-07-05T06:20:15;2.70;;;2.53;;
253;SDS011;590;48.772;8.846;2022-07-05T06:22:44;2.70;;;2.13;;
253;SDS011;590;48.772;8.846;2022-07-05T06:25:12;2.00;;;1.90;;
253;SDS011;590;48.772;8.846;2022-07-05T06:27:50;2.43;;;2.03;;
253;SDS011;590;48.772;8.846;2022-07-05T06:30:19;2.90;;;2.50;;
253;SDS011;590;48.772;8.846;2022-07-05T06:32:48;2.70;;;1.73;;
253;SDS011;590;48.772;8.846;2022-07-05T06:35:18;2.10;;;1.80;;
253;SDS011;590;48.772;8.846;2022-07-05T06:37:48;2.57;;;1.90;;
253;SDS011;590;48.772;8.846;2022-07-05T06:40:19;1.77;;;1.70;;
253;SDS011;590;48.772;8.846;2022-07-05T06:42:48;1.70;;;1.60;;
253;SDS011;590;48.772;8.846;2022-07-05T06:45:17;2.60;;;1.90;;
253;SDS011;590;48.772;8.846;2022-07-05T06:47:47;2.00;;;1.90;;
253;SDS011;590;48.772;8.846;2022-07-05T06:50:22;1.63;;;1.33;;
253;SDS011;590;48.772;8.846;2022-07-05T06:52:51;1.20;;;1.10;;
253;SDS011;590;48.772;8.846;2022-07-05T06:55:19;1.40;;;1.30;;
253;SDS011;590;48.772;8.846;2022-07-05T06:57:47;2.00;;;1.50;;
253;SDS011;590;48.772;8.846;2022-07-05T07:00:36;2.10;;;1.33;;
253;SDS011;590;48.772;8.846;2022-07-05T07:03:24;1.63;;;1.60;;
253;SDS011;590;48.772;8.846;2022-07-05T07:06:14;2.03;;;1.10;;
253;SDS011;590;48.772;8.846;2022-07-05T07:08:43;2.60;;;1.20;;
253;SDS011;590;48.772;8.846;2022-07-05T07:11:28;1.37;;;1.30;;
253;SDS011;590;48.772;8.846;2022-07-05T07:13:57;1.30;;;1.20;;
253;SDS011;590;48.772;8.846;2022-07-05T07:16:25;2.10;;;1.20;;
253;SDS011;590;48.772;8.846;2022-07-05T07:18:53;3.00;;;1.30;;
253;SDS011;590;48.772;8.846;2022-07-05T07:21:40;1.93;;;1.30;;
253;SDS011;590;48.772;8.846;2022-07-05T07:24:10;1.10;;;1.10;;
253;SDS011;590;48.772;8.846;2022-07-05T07:26:38;2.33;;;1.20;;
253;SDS011;590;48.772;8.846;2022-07-05T07:29:24;1.80;;;1.60;;
253;SDS011;590;48.772;8.846;2022-07-05T07:31:52;1.30;;;1.20;;
253;SDS011;590;48.772;8.846;2022-07-05T07:34:20;1.40;;;1.30;;
253;SDS011;590;48.772;8.846;2022-07-05T07:36:49;1.40;;;1.20;;
253;SDS011;590;48.772;8.846;2022-07-05T07:39:18;1.00;;;0.90;;
253;SDS011;590;48.772;8.846;2022-07-05T07:41:48;1.67;;;1.17;;
253;SDS011;590;48.772;8.846;2022-07-05T07:44:16;1.33;;;1.00;;
253;SDS011;590;48.772;8.846;2022-07-05T07:46:45;1.17;;;1.07;;
253;SDS011;590;48.772;8.846;2022-07-05T07:49:13;1.00;;;0.90;;
253;SDS011;590;48.772;8.846;2022-07-05T07:51:41;1.07;;;1.07;;
253;SDS011;590;48.772;8.846;2022-07-05T07:54:11;1.20;;;1.10;;
253;SDS011;590;48.772;8.846;2022-07-05T07:56:40;1.10;;;1.00;;
253;SDS011;590;48.772;8.846;2022-07-05T07:59:08;1.43;;;1.33;;
253;SDS011;590;48.772;8.846;2022-07-05T08:01:37;2.30;;;1.60;;
253;SDS011;590;48.772;8.846;2022-07-05T08:04:10;1.20;;;1.00;;
253;SDS011;590;48.772;8.846;2022-07-05T08:06:40;1.57;;;1.27;;
253;SDS011;590;48.772;8.846;2022-07-05T08:09:08;1.00;;;0.90;;
253;SDS011;590;48.772;8.846;2022-07-05T08:11:43;1.10;;;1.00;;
253;SDS011;590;48.772;8.846;2022-07-05T08:14:12;2.50;;;1.30;;
253;SDS011;590;48.772;8.846;2022-07-05T08:16:40;2.13;;;1.03;;
253;SDS011;590;48.772;8.846;2022-07-05T08:19:16;1.10;;;1.00;;
253;SDS011;590;48.772;8.846;2022-07-05T08:22:02;1.23;;;1.13;;
253;SDS011;590;48.772;8.846;2022-07-05T08:24:30;1.90;;;1.10;;
253;SDS011;590;48.772;8.846;2022-07-05T08:26:59;1.20;;;1.10;;
253;SDS011;590;48.772;8.846;2022-07-05T08:29:27;0.80;;;0.80;;
253;SDS011;590;48.772;8.846;2022-07-05T08:31:56;0.97;;;0.90;;
253;SDS011;590;48.772;8.846;2022-07-05T08:34:24;1.17;;;1.10;;
253;SDS011;590;48.772;8.846;2022-07-05T08:36:52;1.23;;;1.13;;
253;SDS011;590;48.772;8.846;2022-07-05T08:39:20;2.20;;;1.03;;
253;SDS011;590;48.772;8.846;2022-07-05T08:41:49;2.63;;;1.17;;
253;SDS011;590;48.772;8.846;2022-07-05T08:44:22;1.30;;;1.20;;
253;SDS011;590;48.772;8.846;2022-07-05T08:46:51;2.90;;;1.10;;
253;SDS011;590;48.772;8.846;2022-07-05T08:49:20;1.80;;;0.93;;
253;SDS011;590;48.772;8.846;2022-07-05T08:51:50;2.20;;;1.23;;
253;SDS011;590;48.772;8.846;2022-07-05T08:54:20;1.30;;;0.90;;
253;SDS011;590;48.772;8.846;2022-07-05T08:56:49;1.17;;;1.07;;
253;SDS011;590;48.772;8.846;2022-07-05T08:59:39;0.90;;;0.80;;
253;SDS011;590;48.772;8.846;2022-07-05T09:02:07;1.33;;;1.00;;
253;SDS011;590;48.772;8.846;2022-07-05T09:04:41;1.20;;;1.10;;
253;SDS011;590;48.772;8.846;2022-07-05T09:07:14;1.07;;;1.03;;
253;SDS011;590;48.772;8.846;2022-07-05T09:09:45;2.23;;;1.30;;
253;SDS011;590;48.772;8.846;2022-07-05T09:12:17;1.27;;;1.17;;
253;SDS011;590;48.772;8.846;2022-07-05T09:15:04;0.90;;;0.90;;
253;SDS011;590;48.772;8.846;2022-07-05T09:17:33;1.67;;;1.30;;
253;SDS011;590;48.772;8.846;2022-07-05T09:20:10;1.30;;;1.00;;
253;SDS011;590;48.772;8.846;2022-07-05T09:22:46;1.00;;;0.90;;
253;SDS011;590;48.772;8.846;2022-07-05T09:25:16;1.03;;;0.97;;
253;SDS011;590;48.772;8.846;2022-07-05T09:27:47;1.10;;;1.00;;
253;SDS011;590;48.772;8.846;2022-07-05T09:30:27;1.00;;;0.90;;
253;SDS011;590;48.772;8.846;2022-07-05T09:32:59;1.00;;;0.90;;
253;SDS011;590;48.772;8.846;2022-07-05T09:35:35;1.13;;;1.03;;
253;SDS011;590;48.772;8.846;2022-07-05T09:38:04;1.30;;;1.20;;
253;SDS011;590;48.772;8.846;2022-07-05T09:40:33;1.13;;;1.00;;
253;SDS011;590;48.772;8.846;2022-07-05T09:43:14;2.00;;;1.00;;
253;SDS011;590;48.772;8.846;2022-07-05T09:45:51;1.30;;;1.20;;
253;SDS011;590;48.772;8.846;2022-07-05T09:48:21;2.40;;;1.10;;
253;SDS011;590;48.772;8.846;2022-07-05T09:51:03;1.80;;;1.40;;
253;SDS011;590;48.772;8.846;2022-07-05T09:53:53;1.23;;;1.07;;
253;SDS011;590;48.772;8.846;2022-07-05T09:56:27;1.93;;;1.20;;
253;SDS011;590;48.772;8.846;2022-07-05T09:59:05;1.47;;;0.90;;
253;SDS011;590;48.772;8.846;2022-07-05T10:01:41;1.80;;;1.40;;
253;SDS011;590;48.772;8.846;2022-07-05T10:04:10;1.47;;;1.20;;
253;SDS011;590;48.772;8.846;2022-07-05T10:06:38;1.30;;;1.20;;
253;SDS011;590;48.772;8.846;2022-07-05T10:09:06;1.53;;;1.27;;
253;SDS011;590;48.772;8.846;2022-07-05T10:11:38;1.50;;;1.30;;
253;SDS011;590;48.772;8.846;2022-07-05T10:14:09;1.00;;;0.93;;
253;SDS011;590;48.772;8.846;2022-07-05T10:16:42;2.60;;;1.27;;
253;SDS011;590;48.772;8.846;2022-07-05T10:19:15;2.40;;;1.30;;
253;SDS011;590;48.772;8.846;2022-07-05T10:21:46;1.67;;;0.93;;
253;SDS011;590;48.772;8.846;2022-07-05T10:24:36;2.00;;;1.20;;
253;SDS011;590;48.772;8.846;2022-07-05T10:27:06;1.33;;;1.23;;
253;SDS011;590;48.772;8.846;2022-07-05T10:29:36;1.63;;;1.53;;
253;SDS011;590;48.772;8.846;2022-07-05T10:32:07;1.43;;;1.10;;
253;SDS011;590;48.772;8.846;2022-07-05T10:34:37;2.40;;;1.10;;
253;SDS011;590;48.772;8.846;2022-07-05T10:37:24;2.83;;;1.40;;
253;SDS011;590;48.772;8.846;2022-07-05T10:39:54;1.53;;;1.17;;
253;SDS011;590;48.772;8.846;2022-07-05T10:42:24;1.43;;;1.33;;
253;SDS011;590;48.772;8.846;2022-07-05T10:44:55;1.80;;;1.33;;
253;SDS011;590;48.772;8.846;2022-07-05T10:47:24;1.40;;;1.33;;
253;SDS011;590;48.772;8.846;2022-07-05T10:50:00;1.67;;;1.20;;
253;SDS011;590;48.772;8.846;2022-07-05T10:52:30;1.30;;;1.20;;
253;SDS011;590;48.772;8.846;2022-07-05T10:55:19;2.80;;;1.53;;
253;SDS011;590;48.772;8.846;2022-07-05T11:00:45;3.03;;;1.47;;
253;SDS011;590;48.772;8.846;2022-07-05T11:03:33;2.57;;;1.33;;
253;SDS011;590;48.772;8.846;2022-07-05T11:06:03;1.47;;;1.17;;
253;SDS011;590;48.772;8.846;2022-07-05T11:11:35;1.67;;;1.10;;
253;SDS011;590;48.772;8.846;2022-07-05T11:17:16;2.10;;;1.50;;
253;SDS011;590;48.772;8.846;2022-07-05T11:20:27;1.60;;;1.57;;
253;SDS011;590;48.772;8.846;2022-07-05T11:23:08;2.03;;;1.40;;
253;SDS011;590;48.772;8.846;2022-07-05T11:25:38;2.90;;;1.50;;
253;SDS011;590;48.772;8.846;2022-07-05T11:28:12;3.00;;;1.60;;
253;SDS011;590;48.772;8.846;2022-07-05T11:30:44;1.40;;;1.30;;
253;SDS011;590;48.772;8.846;2022-07-05T11:36:25;1.47;;;1.47;;
253;SDS011;590;48.772;8.846;2022-07-05T11:39:06;1.73;;;1.37;;
253;SDS011;590;48.772;8.846;2022-07-05T11:41:41;1.90;;;1.60;;
253;SDS011;590;48.772;8.846;2022-07-05T11:44:10;1.17;;;1.03;;
253;SDS011;590;48.772;8.846;2022-07-05T11:46:38;2.40;;;1.53;;
253;SDS011;590;48.772;8.846;2022-07-05T11:49:20;1.77;;;1.67;;
253;SDS011;590;48.772;8.846;2022-07-05T11:51:55;1.90;;;1.57;;
253;SDS011;590;48.772;8.846;2022-07-05T11:54:24;2.03;;;1.20;;
253;SDS011;590;48.772;8.846;2022-07-05T11:56:53;1.60;;;1.53;;
253;SDS011;590;48.772;8.846;2022-07-05T11:59:23;1.57;;;1.50;;
253;SDS011;590;48.772;8.846;2022-07-05T12:01:52;5.10;;;2.00;;
253;SDS011;590;48.772;8.846;2022-07-05T12:04:23;3.60;;;1.50;;
253;SDS011;590;48.772;8.846;2022-07-05T12:06:52;3.10;;;1.40;;
253;SDS011;590;48.772;8.846;2022-07-05T12:09:23;1.60;;;1.50;;
253;SDS011;590;48.772;8.846;2022-07-05T12:11:53;2.00;;;1.67;;
253;SDS011;590;48.772;8.846;2022-07-05T12:14:46;1.80;;;1.70;;
253;SDS011;590;48.772;8.846;2022-07-05T12:17:15;3.27;;;1.80;;
253;SDS011;590;48.772;8.846;2022-07-05T12:19:52;2.00;;;1.90;;
253;SDS011;590;48.772;8.846;2022-07-05T12:22:30;1.77;;;1.67;;
253;SDS011;590;48.772;8.846;2022-07-05T12:24:58;1.90;;;1.67;;
253;SDS011;590;48.772;8.846;2022-07-05T12:27:28;1.93;;;1.87;;
253;SDS011;590;48.772;8.846;2022-07-05T12:30:00;2.90;;;1.63;;
253;SDS011;590;48.772;8.846;2022-07-05T12:32:30;3.13;;;1.70;;
253;SDS011;590;48.772;8.846;2022-07-05T12:35:03;1.23;;;1.20;;
253;SDS011;590;48.772;8.846;2022-07-05T12:37:34;2.20;;;2.00;;
253;SDS011;590;48.772;8.846;2022-07-05T12:40:03;1.70;;;1.60;;
253;SDS011;590;48.772;8.846;2022-07-05T12:42:33;3.30;;;1.70;;
253;SDS011;590;48.772;8.846;2022-07-05T12:45:15;1.53;;;1.43;;
253;SDS011;590;48.772;8.846;2022-07-05T12:47:47;1.93;;;1.70;;
253;SDS011;590;48.772;8.846;2022-07-05T12:50:16;1.70;;;1.60;;
253;SDS011;590;48.772;8.846;2022-07-05T12:52:59;2.20;;;1.70;;
253;SDS011;590;48.772;8.846;2022-07-05T12:55:48;1.53;;;1.40;;
253;SDS011;590;48.772;8.846;2022-07-05T12:58:44;1.50;;;1.40;;
253;SDS011;590;48.772;8.846;2022-07-05T13:01:23;1.97;;;1.80;;
253;SDS011;590;48.772;8.846;2022-07-05T13:03:59;1.50;;;1.40;;
253;SDS011;590;48.772;8.846;2022-07-05T13:06:40;2.90;;;1.30;;
253;SDS011;590;48.772;8.846;2022-07-05T13:09:10;2.60;;;1.60;;
253;SDS011;590;48.772;8.846;2022-07-05T13:11:39;1.83;;;1.50;;
253;SDS011;590;48.772;8.846;2022-07-05T13:14:07;1.90;;;1.57;;
253;SDS011;590;48.772;8.846;2022-07-05T13:16:36;1.47;;;1.37;;
253;SDS011;590;48.772;8.846;2022-07-05T13:19:08;1.23;;;1.13;;
253;SDS011;590;48.772;8.846;2022-07-05T13:21:37;1.60;;;1.50;;
253;SDS011;590;48.772;8.846;2022-07-05T13:24:09;1.50;;;1.40;;
253;SDS011;590;48.772;8.846;2022-07-05T13:26:37;1.43;;;1.40;;
253;SDS011;590;48.772;8.846;2022-07-05T13:29:05;1.70;;;1.40;;
253;SDS011;590;48.772;8.846;2022-07-05T13:31:33;1.57;;;1.37;;
253;SDS011;590;48.772;8.846;2022-07-05T13:34:01;1.77;;;1.67;;
253;SDS011;590;48.772;8.846;2022-07-05T13:36:29;1.60;;;1.50;;
253;SDS011;590;48.772;8.846;2022-07-05T13:39:00;1.93;;;1.77;;
253;SDS011;590;48.772;8.846;2022-07-05T13:41:29;1.90;;;1.03;;
253;SDS011;590;48.772;8.846;2022-07-05T13:43:58;1.50;;;1.40;;
253;SDS011;590;48.772;8.846;2022-07-05T13:46:26;1.67;;;1.57;;
253;SDS011;590;48.772;8.846;2022-07-05T13:48:54;1.83;;;1.00;;
253;SDS011;590;48.772;8.846;2022-07-05T13:51:22;1.40;;;1.30;;
253;SDS011;590;48.772;8.846;2022-07-05T13:53:55;1.17;;;1.07;;
253;SDS011;590;48.772;8.846;2022-07-05T13:56:23;3.07;;;1.30;;
253;SDS011;590;48.772;8.846;2022-07-05T13:58:53;1.40;;;1.30;;
253;SDS011;590;48.772;8.846;2022-07-05T14:01:22;2.37;;;1.80;;
253;SDS011;590;48.772;8.846;2022-07-05T14:03:55;1.97;;;1.50;;
253;SDS011;590;48.772;8.846;2022-07-05T14:06:25;1.03;;;0.93;;
253;SDS011;590;48.772;8.846;2022-07-05T14:08:53;3.27;;;1.70;;
253;SDS011;590;48.772;8.846;2022-07-05T14:11:21;1.93;;;1.73;;
253;SDS011;590;48.772;8.846;2022-07-05T14:13:51;1.30;;;1.20;;
253;SDS011;590;48.772;8.846;2022-07-05T14:16:21;1.73;;;1.30;;
253;SDS011;590;48.772;8.846;2022-07-05T14:18:49;1.80;;;1.30;;
253;SDS011;590;48.772;8.846;2022-07-05T14:21:19;1.23;;;1.20;;
253;SDS011;590;48.772;8.846;2022-07-05T14:24:03;1.83;;;1.20;;
253;SDS011;590;48.772;8.846;2022-07-05T14:26:31;1.70;;;1.60;;
253;SDS011;590;48.772;8.846;2022-07-05T14:29:00;1.63;;;1.33;;
253;SDS011;590;48.772;8.846;2022-07-05T14:31:31;4.03;;;1.53;;
253;SDS011;590;48.772;8.846;2022-07-05T14:34:01;1.47;;;1.30;;
253;SDS011;590;48.772;8.846;2022-07-05T14:36:29;2.23;;;1.60;;
253;SDS011;590;48.772;8.846;2022-07-05T14:38:58;1.53;;;1.43;;
253;SDS011;590;48.772;8.846;2022-07-05T14:41:30;1.30;;;1.20;;
253;SDS011;590;48.772;8.846;2022-07-05T14:43:58;3.80;;;1.80;;
253;SDS011;590;48.772;8.846;2022-07-05T14:46:26;3.60;;;1.60;;
253;SDS011;590;48.772;8.846;2022-07-05T14:48:55;2.03;;;1.30;;
253;SDS011;590;48.772;8.846;2022-07-05T14:51:24;1.40;;;1.30;;
253;SDS011;590;48.772;8.846;2022-07-05T14:53:52;1.30;;;1.13;;
253;SDS011;590;48.772;8.846;2022-07-05T14:56:20;1.50;;;1.40;;
253;SDS011;590;48.772;8.846;2022-07-05T14:58:48;1.47;;;1.37;;
253;SDS011;590;48.772;8.846;2022-07-05T15:01:16;1.43;;;1.33;;
253;SDS011;590;48.772;8.846;2022-07-05T15:03:45;1.33;;;1.23;;
253;SDS011;590;48.772;8.846;2022-07-05T15:06:14;1.40;;;1.30;;
253;SDS011;590;48.772;8.846;2022-07-05T15:08:43;1.03;;;1.00;;
253;SDS011;590;48.772;8.846;2022-07-05T15:11:11;1.87;;;1.17;;
253;SDS011;590;48.772;8.846;2022-07-05T15:13:39;1.53;;;1.20;;
253;SDS011;590;48.772;8.846;2022-07-05T15:16:07;2.03;;;1.33;;
253;SDS011;590;48.772;8.846;2022-07-05T15:18:35;1.23;;;1.10;;
253;SDS011;590;48.772;8.846;2022-07-05T15:21:03;1.77;;;1.40;;
253;SDS011;590;48.772;8.846;2022-07-05T15:23:33;1.53;;;1.43;;
253;SDS011;590;48.772;8.846;2022-07-05T15:26:01;2.40;;;1.50;;
253;SDS011;590;48.772;8.846;2022-07-05T15:28:29;2.50;;;1.57;;
253;SDS011;590;48.772;8.846;2022-07-05T15:30:58;1.50;;;1.40;;
253;SDS011;590;48.772;8.846;2022-07-05T15:33:26;1.97;;;1.20;;
253;SDS011;590;48.772;8.846;2022-07-05T15:35:56;1.93;;;1.40;;
253;SDS011;590;48.772;8.846;2022-07-05T15:38:25;1.90;;;1.60;;
253;SDS011;590;48.772;8.846;2022-07-05T15:40:55;1.83;;;1.40;;
253;SDS011;590;48.772;8.846;2022-07-05T15:43:23;1.30;;;1.20;;
253;SDS011;590;48.772;8.846;2022-07-05T15:45:54;1.37;;;1.20;;
253;SDS011;590;48.772;8.846;2022-07-05T15:48:23;3.73;;;1.57;;
253;SDS011;590;48.772;8.846;2022-07-05T15:50:51;1.40;;;0.97;;
253;SDS011;590;48.772;8.846;2022-07-05T15:53:26;1.30;;;1.20;;
253;SDS011;590;48.772;8.846;2022-07-05T15:55:56;1.10;;;1.10;;
253;SDS011;590;48.772;8.846;2022-07-05T15:58:27;0.90;;;0.90;;
253;SDS011;590;48.772;8.846;2022-07-05T16:00:55;2.40;;;1.30;;
253;SDS011;590;48.772;8.846;2022-07-05T16:03:26;1.30;;;1.20;;
253;SDS011;590;48.772;8.846;2022-07-05T16:05:54;2.30;;;1.70;;
253;SDS011;590;48.772;8.846;2022-07-05T16:08:24;2.63;;;1.40;;
253;SDS011;590;48.772;8.846;2022-07-05T16:10:52;2.43;;;1.37;;
253;SDS011;590;48.772;8.846;2022-07-05T16:13:24;1.77;;;1.70;;
253;SDS011;590;48.772;8.846;2022-07-05T16:15:52;1.73;;;1.30;;
253;SDS011;590;48.772;8.846;2022-07-05T16:18:39;1.50;;;1.40;;
253;SDS011;590;48.772;8.846;2022-07-05T16:21:09;2.07;;;1.30;;